createdAt,value
2018-01-06T00:00:28.977Z,7.10
2018-01-06T00:02:56.401Z,4.60
2018-01-06T00:05:23.966Z,6.40
2018-01-06T00:07:51.737Z,11.43
2018-01-06T00:10:19.361Z,6.30
2018-01-06T00:12:47.573Z,9.67
2018-01-06T00:15:15.197Z,14.53
2018-01-06T00:17:42.636Z,6.47
2018-01-06T00:20:10.826Z,6.40
2018-01-06T00:22:38.259Z,5.87
2018-01-06T00:25:05.684Z,7.53
2018-01-06T00:27:33.249Z,5.00
2018-01-06T00:30:00.712Z,9.17
2018-01-06T00:32:28.147Z,7.93
2018-01-06T00:34:55.629Z,8.60
2018-01-06T00:37:23.070Z,15.30
2018-01-06T00:39:50.484Z,5.33
2018-01-06T00:42:17.985Z,7.57
2018-01-06T00:44:45.754Z,11.27
2018-01-06T00:47:13.381Z,4.00
2018-01-06T00:49:40.892Z,5.93
2018-01-06T00:52:08.317Z,9.57
2018-01-06T00:54:35.808Z,7.00
2018-01-06T00:57:03.244Z,10.90
2018-01-06T00:59:30.802Z,5.43
2018-01-06T01:01:58.226Z,4.33
2018-01-06T01:04:25.742Z,10.17
2018-01-06T01:06:53.365Z,5.53
2018-01-06T01:09:21.564Z,7.80
2018-01-06T01:11:49.174Z,5.67
2018-01-06T01:14:17.359Z,5.83
2018-01-06T01:16:44.855Z,7.20
2018-01-06T01:19:12.337Z,6.70
2018-01-06T01:21:39.942Z,11.63
2018-01-06T01:24:07.530Z,9.33
2018-01-06T01:26:34.957Z,6.37
2018-01-06T01:29:02.450Z,6.23
2018-01-06T01:31:30.102Z,6.77
2018-01-06T01:33:57.577Z,36.27
2018-01-06T01:36:25.045Z,5.33
2018-01-06T01:38:52.489Z,5.30
2018-01-06T01:41:19.958Z,4.43
2018-01-06T01:43:47.407Z,8.10
2018-01-06T01:46:14.856Z,5.40
2018-01-06T01:48:42.426Z,7.83
2018-01-06T01:51:10.011Z,7.40
2018-01-06T01:53:37.510Z,6.50
2018-01-06T01:56:04.935Z,11.13
2018-01-06T01:58:32.429Z,10.97
2018-01-06T02:00:59.950Z,6.67
2018-01-06T02:03:27.378Z,4.03
2018-01-06T02:05:54.838Z,9.80
2018-01-06T02:08:22.301Z,7.37
2018-01-06T02:10:49.847Z,5.37
2018-01-06T02:13:17.280Z,15.07
2018-01-06T02:15:44.693Z,6.67
2018-01-06T02:18:12.222Z,8.70
2018-01-06T02:20:39.673Z,5.43
2018-01-06T02:23:07.122Z,5.60
2018-01-06T02:25:34.541Z,4.57
2018-01-06T02:28:03.545Z,6.30
2018-01-06T02:30:30.962Z,10.20
2018-01-06T02:32:58.385Z,6.37
2018-01-06T02:35:25.853Z,6.30
2018-01-06T02:37:53.345Z,8.63
2018-01-06T02:40:20.782Z,7.40
2018-01-06T02:42:48.530Z,7.57
2018-01-06T02:45:16.021Z,12.27
2018-01-06T02:47:43.450Z,7.70
2018-01-06T02:50:11.014Z,6.23
2018-01-06T02:52:38.478Z,6.60
2018-01-06T02:55:05.938Z,6.03
2018-01-06T02:57:33.416Z,6.40
2018-01-06T03:00:01.047Z,4.83
2018-01-06T03:02:28.472Z,7.77
2018-01-06T03:04:56.657Z,6.60
2018-01-06T03:07:24.078Z,10.27
2018-01-06T03:09:51.543Z,6.60
2018-01-06T03:12:18.963Z,8.60
2018-01-06T03:14:46.378Z,5.47
2018-01-06T03:17:14.568Z,6.73
2018-01-06T03:19:42.002Z,8.53
2018-01-06T03:22:09.508Z,30.00
2018-01-06T03:24:37.138Z,8.80
2018-01-06T03:27:04.729Z,6.13
2018-01-06T03:29:32.146Z,6.60
2018-01-06T03:31:59.586Z,7.43
2018-01-06T03:34:27.103Z,15.70
2018-01-06T03:36:54.543Z,5.87
2018-01-06T03:39:21.957Z,6.17
2018-01-06T03:41:49.431Z,5.57
2018-01-06T03:44:17.618Z,8.93
2018-01-06T03:46:45.043Z,7.73
2018-01-06T03:49:12.774Z,6.63
2018-01-06T03:51:40.189Z,6.40
2018-01-06T03:54:07.614Z,5.90
2018-01-06T03:56:35.031Z,6.67
2018-01-06T03:59:02.449Z,5.73
2018-01-06T04:01:30.647Z,17.57
2018-01-06T04:03:58.075Z,8.80
2018-01-06T04:06:25.489Z,9.13
2018-01-06T04:08:52.920Z,8.77
2018-01-06T04:11:20.378Z,5.30
2018-01-06T04:13:47.914Z,17.57
2018-01-06T04:16:15.329Z,5.47
2018-01-06T04:18:42.877Z,5.43
2018-01-06T04:21:10.509Z,7.40
2018-01-06T04:23:37.998Z,7.53
2018-01-06T04:26:05.561Z,7.93
2018-01-06T04:28:32.982Z,8.47
2018-01-06T04:31:00.407Z,13.97
2018-01-06T04:33:27.842Z,6.83
2018-01-06T04:35:55.273Z,11.37
2018-01-06T04:38:22.753Z,5.23
2018-01-06T04:40:50.187Z,7.03
2018-01-06T04:43:17.770Z,8.00
2018-01-06T04:45:45.206Z,12.40
2018-01-06T04:48:12.631Z,6.10
2018-01-06T04:50:40.989Z,6.07
2018-01-06T04:53:08.414Z,8.53
2018-01-06T04:55:35.886Z,7.13
2018-01-06T04:58:03.429Z,6.60
2018-01-06T05:00:30.850Z,7.23
2018-01-06T05:02:58.265Z,7.87
2018-01-06T05:05:25.814Z,9.53
2018-01-06T05:07:53.239Z,7.13
2018-01-06T05:10:20.725Z,9.10
2018-01-06T05:12:48.159Z,8.87
2018-01-06T05:15:15.577Z,9.13
2018-01-06T05:17:43.014Z,5.83
2018-01-06T05:20:10.462Z,7.80
2018-01-06T05:22:37.894Z,12.73
2018-01-06T05:25:05.381Z,7.60
2018-01-06T05:27:32.842Z,9.93
2018-01-06T05:30:00.386Z,6.80
2018-01-06T05:32:27.809Z,6.57
2018-01-06T05:34:55.230Z,10.27
2018-01-06T05:37:22.666Z,6.97
2018-01-06T05:39:50.098Z,13.07
2018-01-06T05:42:17.611Z,8.53
2018-01-06T05:44:45.042Z,7.73
2018-01-06T05:47:12.478Z,6.13
2018-01-06T05:49:39.882Z,16.00
2018-01-06T05:52:07.510Z,6.70
2018-01-06T05:54:34.942Z,9.53
2018-01-06T05:57:02.430Z,6.50
2018-01-06T05:59:29.921Z,8.10
2018-01-06T06:01:57.461Z,8.47
2018-01-06T06:04:24.949Z,8.37
2018-01-06T06:06:52.557Z,7.10
2018-01-06T06:09:19.978Z,7.57
2018-01-06T06:11:48.161Z,7.60
2018-01-06T06:14:15.726Z,8.30
2018-01-06T06:16:43.309Z,7.80
2018-01-06T06:19:10.774Z,6.33
2018-01-06T06:21:38.235Z,7.10
2018-01-06T06:24:05.658Z,6.40
2018-01-06T06:26:33.153Z,7.23
2018-01-06T06:29:00.582Z,8.17
2018-01-06T06:31:28.066Z,16.13
2018-01-06T06:33:55.695Z,13.87
2018-01-06T06:36:23.135Z,11.90
2018-01-06T06:38:51.323Z,11.20
2018-01-06T06:41:18.818Z,8.37
2018-01-06T06:43:46.274Z,6.53
2018-01-06T06:46:13.706Z,11.60
2018-01-06T06:48:41.126Z,8.33
2018-01-06T06:51:08.553Z,12.70
2018-01-06T06:53:35.998Z,7.83
2018-01-06T06:56:03.566Z,16.93
2018-01-06T06:58:31.010Z,9.60
2018-01-06T07:00:58.482Z,12.37
2018-01-06T07:03:26.126Z,11.73
2018-01-06T07:05:53.601Z,13.60
2018-01-06T07:08:21.167Z,12.10
2018-01-06T07:10:48.794Z,9.00
2018-01-06T07:13:16.245Z,18.87
2018-01-06T07:15:43.839Z,14.47
2018-01-06T07:18:11.466Z,13.97
2018-01-06T07:20:38.885Z,16.07
2018-01-06T07:23:06.320Z,8.17
2018-01-06T07:25:33.864Z,10.70
2018-01-06T07:28:01.340Z,8.57
2018-01-06T07:30:28.843Z,26.20
2018-01-06T07:32:56.278Z,6.60
2018-01-06T07:35:23.737Z,8.13
2018-01-06T07:37:51.277Z,17.77
2018-01-06T07:40:18.721Z,17.60
2018-01-06T07:42:46.149Z,12.87
2018-01-06T07:45:13.654Z,10.10
2018-01-06T07:47:41.090Z,15.33
2018-01-06T07:50:08.578Z,17.30
2018-01-06T07:52:36.225Z,13.53
2018-01-06T07:55:03.794Z,56.37
2018-01-06T07:57:31.258Z,14.03
2018-01-06T07:59:58.890Z,19.27
2018-01-06T08:02:26.344Z,15.10
2018-01-06T08:04:53.802Z,14.23
2018-01-06T08:07:21.256Z,21.37
2018-01-06T08:09:48.883Z,19.20
2018-01-06T08:12:16.351Z,11.80
2018-01-06T08:14:44.575Z,18.00
2018-01-06T08:17:12.021Z,16.70
2018-01-06T08:19:39.454Z,18.73
2018-01-06T08:22:07.050Z,11.50
2018-01-06T08:24:34.502Z,9.80
2018-01-06T08:27:01.926Z,14.00
2018-01-06T08:29:29.387Z,10.87
2018-01-06T08:31:56.842Z,9.33
2018-01-06T08:34:24.322Z,12.00
2018-01-06T08:36:51.750Z,10.27
2018-01-06T08:39:19.249Z,9.93
2018-01-06T08:41:46.715Z,15.63
2018-01-06T08:44:14.174Z,7.73
2018-01-06T08:46:41.642Z,7.10
2018-01-06T08:49:09.069Z,9.83
2018-01-06T08:51:36.549Z,14.50
2018-01-06T08:54:04.034Z,10.90
2018-01-06T08:56:31.666Z,8.77
2018-01-06T08:58:59.114Z,10.63
2018-01-06T09:01:26.566Z,7.87
2018-01-06T09:03:54.325Z,11.57
2018-01-06T09:06:21.834Z,11.70
2018-01-06T09:08:49.352Z,8.40
2018-01-06T09:11:16.816Z,7.27
2018-01-06T09:13:44.396Z,25.20
2018-01-06T09:16:11.826Z,8.00
2018-01-06T09:18:39.536Z,8.07
2018-01-06T09:21:06.967Z,7.27
2018-01-06T09:23:34.391Z,9.53
2018-01-06T09:26:01.852Z,6.07
2018-01-06T09:28:29.321Z,5.13
2018-01-06T09:30:56.815Z,7.50
2018-01-06T09:33:24.300Z,8.83
2018-01-06T09:35:51.838Z,7.90
2018-01-06T09:38:19.383Z,9.03
2018-01-06T09:40:46.844Z,6.10
2018-01-06T09:43:14.302Z,10.60
2018-01-06T09:45:41.946Z,24.67
2018-01-06T09:48:09.494Z,8.37
2018-01-06T09:50:36.937Z,10.30
2018-01-06T09:53:04.530Z,13.00
2018-01-06T09:55:32.016Z,11.93
2018-01-06T09:57:59.658Z,15.00
2018-01-06T10:00:27.174Z,11.90
2018-01-06T10:02:54.667Z,12.23
2018-01-06T10:05:22.235Z,12.47
2018-01-06T10:07:49.674Z,29.37
2018-01-06T10:10:17.373Z,10.80
2018-01-06T10:12:44.853Z,8.52
2018-01-06T10:15:12.562Z,12.60
2018-01-06T10:17:39.998Z,19.20
2018-01-06T10:20:07.497Z,14.27
2018-01-06T10:22:34.946Z,8.67
2018-01-06T10:25:02.373Z,9.33
2018-01-06T10:27:29.798Z,10.57
2018-01-06T10:29:57.209Z,5.47
2018-01-06T10:32:24.612Z,10.27
2018-01-06T10:34:52.173Z,5.83
2018-01-06T10:37:19.709Z,5.70
2018-01-06T10:39:47.154Z,6.90
2018-01-06T10:42:14.578Z,8.93
2018-01-06T10:44:41.998Z,5.20
2018-01-06T10:47:09.427Z,8.57
2018-01-06T10:49:36.855Z,3.80
2018-01-06T10:52:04.302Z,6.10
2018-01-06T10:54:31.734Z,13.50
2018-01-06T10:56:59.936Z,12.10
2018-01-06T10:59:27.421Z,10.30
2018-01-06T11:02:00.742Z,8.30
2018-01-06T11:04:28.484Z,7.60
2018-01-06T11:06:55.937Z,11.40
2018-01-06T11:09:23.357Z,19.93
2018-01-06T11:11:50.795Z,6.47
2018-01-06T11:14:18.218Z,4.53
2018-01-06T11:16:45.765Z,7.10
2018-01-06T11:19:13.201Z,4.13
2018-01-06T11:21:40.696Z,11.73
2018-01-06T11:24:08.145Z,10.83
2018-01-06T11:26:35.792Z,5.40
2018-01-06T11:29:03.361Z,8.73
2018-01-06T11:31:30.818Z,6.83
2018-01-06T11:33:58.250Z,11.37
2018-01-06T11:36:25.737Z,5.30
2018-01-06T11:38:53.166Z,11.37
2018-01-06T11:41:20.612Z,13.83
2018-01-06T11:43:48.030Z,10.33
2018-01-06T11:46:15.478Z,9.40
2018-01-06T11:48:42.939Z,12.47
2018-01-06T11:51:10.359Z,5.93
2018-01-06T11:53:37.831Z,5.43
2018-01-06T11:56:05.276Z,10.37
2018-01-06T11:58:32.862Z,7.73
2018-01-06T12:01:00.313Z,11.67
2018-01-06T12:03:27.774Z,6.43
2018-01-06T12:05:55.198Z,6.13
2018-01-06T12:08:22.694Z,9.00
2018-01-06T12:10:50.327Z,7.40
2018-01-06T12:13:17.745Z,3.03
2018-01-06T12:15:45.280Z,9.00
2018-01-06T12:18:12.737Z,21.23
2018-01-06T12:20:40.163Z,16.50
2018-01-06T12:23:07.742Z,7.40
2018-01-06T12:25:35.171Z,12.37
2018-01-06T12:28:02.672Z,11.07
2018-01-06T12:30:30.126Z,9.23
2018-01-06T12:32:57.567Z,13.20
2018-01-06T12:35:24.985Z,6.47
2018-01-06T12:37:52.422Z,5.33
2018-01-06T12:40:19.853Z,5.47
2018-01-06T12:42:47.353Z,9.10
2018-01-06T12:45:14.783Z,21.93
2018-01-06T12:47:42.330Z,18.20
2018-01-06T12:50:09.787Z,7.87
2018-01-06T12:52:37.274Z,11.37
2018-01-06T12:55:04.646Z,7.53
2018-01-06T12:57:32.081Z,12.60
2018-01-06T12:59:59.501Z,16.27
2018-01-06T13:02:27.060Z,10.40
2018-01-06T13:04:54.467Z,11.40
2018-01-06T13:07:22.048Z,9.60
2018-01-06T13:09:49.754Z,9.37
2018-01-06T13:12:17.186Z,23.10
2018-01-06T13:14:44.616Z,7.80
2018-01-06T13:17:12.130Z,12.77
2018-01-06T13:19:39.559Z,17.23
2018-01-06T13:22:06.986Z,16.70
2018-01-06T13:24:34.505Z,14.47
2018-01-06T13:27:02.273Z,16.97
2018-01-06T13:29:29.915Z,11.10
2018-01-06T13:31:57.497Z,13.83
2018-01-06T13:34:24.923Z,10.60
2018-01-06T13:36:52.341Z,12.10
2018-01-06T13:39:19.771Z,12.10
2018-01-06T13:41:47.185Z,9.60
2018-01-06T13:44:14.689Z,7.07
2018-01-06T13:46:42.137Z,10.23
2018-01-06T13:49:09.607Z,16.47
2018-01-06T13:51:37.050Z,16.03
2018-01-06T13:54:04.619Z,7.17
2018-01-06T13:56:32.066Z,8.43
2018-01-06T13:58:59.538Z,7.73
2018-01-06T14:01:26.979Z,10.90
2018-01-06T14:03:54.453Z,31.27
2018-01-06T14:06:22.226Z,7.27
2018-01-06T14:08:49.687Z,6.43
2018-01-06T14:11:17.484Z,8.23
2018-01-06T14:13:44.881Z,5.27
2018-01-06T14:16:12.346Z,6.90
2018-01-06T14:18:39.914Z,5.87
2018-01-06T14:21:08.044Z,8.70
2018-01-06T14:23:36.262Z,9.73
2018-01-06T14:26:03.707Z,15.60
2018-01-06T14:28:31.131Z,7.17
2018-01-06T14:30:58.643Z,9.47
2018-01-06T14:33:26.059Z,9.87
2018-01-06T14:35:53.568Z,10.40
2018-01-06T14:38:21.127Z,7.07
2018-01-06T14:40:48.770Z,7.50
2018-01-06T14:43:16.201Z,14.60
2018-01-06T14:45:43.708Z,9.67
2018-01-06T14:48:11.128Z,6.77
2018-01-06T14:50:38.569Z,15.73
2018-01-06T14:53:06.014Z,8.80
2018-01-06T14:55:33.481Z,13.37
2018-01-06T14:58:00.946Z,13.80
2018-01-06T15:00:28.421Z,13.17
2018-01-06T15:02:55.885Z,10.97
2018-01-06T15:05:23.333Z,11.57
2018-01-06T15:07:50.835Z,12.70
2018-01-06T15:10:18.367Z,10.70
2018-01-06T15:12:45.789Z,13.33
2018-01-06T15:15:13.424Z,9.70
2018-01-06T15:17:40.864Z,9.53
2018-01-06T15:20:08.308Z,12.23
2018-01-06T15:22:35.796Z,24.17
2018-01-06T15:25:03.262Z,22.07
2018-01-06T15:27:30.778Z,22.57
2018-01-06T15:29:58.230Z,30.10
2018-01-06T15:32:25.872Z,20.47
2018-01-06T15:34:53.397Z,14.30
2018-01-06T15:37:20.913Z,11.37
2018-01-06T15:39:48.386Z,16.60
2018-01-06T15:42:15.834Z,11.57
2018-01-06T15:44:43.301Z,15.23
2018-01-06T15:47:10.741Z,14.23
2018-01-06T15:49:38.225Z,18.13
2018-01-06T15:52:05.715Z,12.40
2018-01-06T15:54:33.337Z,12.20
2018-01-06T15:57:00.895Z,12.20
2018-01-06T15:59:28.342Z,20.43
2018-01-06T16:01:55.754Z,21.03
2018-01-06T16:04:23.198Z,8.80
2018-01-06T16:06:50.753Z,11.47
2018-01-06T16:09:18.353Z,28.10
2018-01-06T16:11:45.842Z,10.50
2018-01-06T16:14:13.270Z,18.87
2018-01-06T16:16:40.754Z,10.77
2018-01-06T16:19:08.226Z,12.73
2018-01-06T16:21:35.650Z,12.00
2018-01-06T16:24:03.142Z,13.30
2018-01-06T16:26:30.602Z,13.27
2018-01-06T16:28:58.154Z,11.20
2018-01-06T16:31:25.588Z,39.70
2018-01-06T16:33:53.067Z,13.70
2018-01-06T16:36:20.503Z,20.27
2018-01-06T16:38:47.981Z,13.83
2018-01-06T16:41:15.613Z,17.17
2018-01-06T16:43:43.105Z,16.03
2018-01-06T16:46:10.666Z,13.60
2018-01-06T16:48:38.141Z,20.63
2018-01-06T16:51:05.889Z,17.23
2018-01-06T16:53:33.336Z,21.63
2018-01-06T16:56:00.798Z,12.67
2018-01-06T16:58:28.434Z,23.60
2018-01-06T17:00:56.021Z,21.97
2018-01-06T17:03:23.649Z,22.40
2018-01-06T17:05:51.241Z,16.40
2018-01-06T17:08:18.870Z,24.70
2018-01-06T17:10:46.298Z,20.20
2018-01-06T17:13:13.923Z,16.20
2018-01-06T17:15:41.387Z,25.40
2018-01-06T17:18:08.806Z,13.23
2018-01-06T17:20:36.242Z,15.03
2018-01-06T17:23:03.661Z,15.93
2018-01-06T17:25:31.169Z,12.40
2018-01-06T17:27:58.671Z,18.77
2018-01-06T17:30:26.195Z,20.17
2018-01-06T17:32:53.756Z,13.53
2018-01-06T17:35:21.253Z,16.07
2018-01-06T17:37:49.003Z,13.10
2018-01-06T17:40:16.517Z,19.03
2018-01-06T17:42:43.942Z,18.20
2018-01-06T17:45:11.402Z,18.23
2018-01-06T17:47:38.835Z,19.20
2018-01-06T17:50:06.301Z,19.93
2018-01-06T17:52:33.812Z,23.40
2018-01-06T17:55:01.322Z,19.27
2018-01-06T17:57:28.970Z,18.60
2018-01-06T17:59:56.398Z,11.50
2018-01-06T18:02:24.601Z,21.30
2018-01-06T18:04:52.073Z,12.57
2018-01-06T18:07:19.517Z,14.10
2018-01-06T18:09:46.986Z,23.13
2018-01-06T18:12:14.455Z,25.03
2018-01-06T18:14:41.879Z,30.23
2018-01-06T18:17:09.362Z,13.43
2018-01-06T18:19:36.786Z,25.13
2018-01-06T18:22:04.227Z,20.37
2018-01-06T18:24:31.654Z,36.57
2018-01-06T18:26:59.196Z,20.30
2018-01-06T18:29:26.617Z,34.17
2018-01-06T18:31:54.726Z,25.43
2018-01-06T18:34:22.191Z,25.03
2018-01-06T18:36:49.624Z,21.10
2018-01-06T18:39:17.053Z,22.37
2018-01-06T18:41:44.483Z,28.30
2018-01-06T18:44:11.918Z,27.20
2018-01-06T18:46:39.537Z,24.53
2018-01-06T18:49:06.929Z,37.43
2018-01-06T18:51:34.395Z,24.83
2018-01-06T18:54:01.818Z,22.20
2018-01-06T18:56:29.250Z,32.23
2018-01-06T18:58:56.767Z,25.33
2018-01-06T19:01:24.410Z,32.63
2018-01-06T19:03:51.857Z,27.20
2018-01-06T19:06:19.357Z,26.60
2018-01-06T19:08:46.786Z,21.07
2018-01-06T19:11:14.550Z,20.83
2018-01-06T19:13:42.130Z,17.50
2018-01-06T19:16:09.558Z,26.83
2018-01-06T19:18:37.003Z,36.90
2018-01-06T19:21:04.433Z,14.30
2018-01-06T19:23:31.870Z,18.40
2018-01-06T19:25:59.298Z,24.53
2018-01-06T19:28:26.748Z,19.77
2018-01-06T19:30:54.424Z,19.40
2018-01-06T19:33:22.091Z,26.27
2018-01-06T19:35:49.558Z,33.13
2018-01-06T19:38:17.006Z,36.30
2018-01-06T19:40:44.438Z,21.03
2018-01-06T19:43:11.886Z,22.73
2018-01-06T19:45:39.309Z,28.50
2018-01-06T19:48:06.841Z,24.70
2018-01-06T19:50:34.280Z,41.00
2018-01-06T19:53:01.763Z,35.83
2018-01-06T19:55:29.527Z,22.60
2018-01-06T19:57:56.982Z,22.30
2018-01-06T20:00:24.614Z,26.63
2018-01-06T20:02:52.206Z,33.33
2018-01-06T20:05:19.662Z,25.17
2018-01-06T20:07:47.085Z,31.80
2018-01-06T20:10:14.590Z,21.67
2018-01-06T20:12:42.020Z,20.57
2018-01-06T20:15:09.454Z,28.70
2018-01-06T20:17:36.952Z,36.60
2018-01-06T20:20:04.407Z,24.53
2018-01-06T20:22:32.042Z,25.70
2018-01-06T20:24:59.465Z,54.60
2018-01-06T20:27:26.902Z,25.03
2018-01-06T20:29:54.571Z,38.30
2018-01-06T20:32:21.991Z,21.80
2018-01-06T20:34:49.413Z,35.97
2018-01-06T20:37:16.839Z,28.57
2018-01-06T20:39:44.265Z,23.03
2018-01-06T20:42:11.705Z,25.43
2018-01-06T20:44:39.307Z,27.00
2018-01-06T20:47:06.736Z,32.40
2018-01-06T20:49:34.175Z,30.00
2018-01-06T20:52:01.670Z,27.27
2018-01-06T20:54:29.306Z,30.93
2018-01-06T20:56:56.889Z,34.03
2018-01-06T20:59:24.663Z,27.73
2018-01-06T21:01:52.088Z,34.13
2018-01-06T21:04:19.533Z,30.77
2018-01-06T21:06:47.030Z,31.93
2018-01-06T21:09:14.471Z,30.87
2018-01-06T21:11:41.937Z,19.20
2018-01-06T21:14:09.373Z,27.73
2018-01-06T21:16:36.793Z,18.30
2018-01-06T21:19:04.218Z,19.13
2018-01-06T21:21:31.691Z,17.63
2018-01-06T21:23:59.119Z,16.00
2018-01-06T21:26:26.694Z,22.07
2018-01-06T21:28:54.156Z,16.97
2018-01-06T21:31:21.805Z,19.87
2018-01-06T21:33:49.374Z,19.80
2018-01-06T21:36:16.829Z,16.80
2018-01-06T21:38:44.292Z,19.60
2018-01-06T21:41:11.750Z,17.57
2018-01-06T21:43:39.283Z,25.13
2018-01-06T21:46:06.714Z,21.47
2018-01-06T21:48:34.294Z,18.70
2018-01-06T21:51:01.785Z,25.30
2018-01-06T21:53:29.535Z,18.30
2018-01-06T21:55:57.119Z,13.50
2018-01-06T21:58:24.554Z,13.50
2018-01-06T22:00:51.973Z,15.83
2018-01-06T22:03:19.402Z,14.20
2018-01-06T22:05:46.937Z,18.90
2018-01-06T22:08:14.565Z,18.67
2018-01-06T22:10:41.985Z,18.30
2018-01-06T22:13:09.525Z,17.17
2018-01-06T22:15:37.033Z,15.57
2018-01-06T22:18:04.487Z,18.50
2018-01-06T22:20:31.920Z,15.50
2018-01-06T22:22:59.355Z,17.47
2018-01-06T22:25:26.908Z,18.43
2018-01-06T22:27:54.664Z,13.57
2018-01-06T22:30:22.139Z,24.33
2018-01-06T22:32:49.566Z,25.80
2018-01-06T22:35:16.994Z,20.10
2018-01-06T22:37:44.506Z,25.77
2018-01-06T22:40:11.933Z,20.57
2018-01-06T22:42:39.413Z,19.60
2018-01-06T22:45:06.841Z,20.97
2018-01-06T22:47:34.275Z,16.67
2018-01-06T22:50:01.694Z,18.27
2018-01-06T22:52:29.250Z,15.07
2018-01-06T22:54:56.702Z,15.10
2018-01-06T22:57:24.171Z,21.43
2018-01-06T22:59:51.615Z,19.27
2018-01-06T23:02:19.038Z,15.77
2018-01-06T23:04:46.456Z,13.93
2018-01-06T23:07:13.910Z,12.87
2018-01-06T23:09:41.545Z,18.33
2018-01-06T23:12:09.227Z,19.13
2018-01-06T23:14:36.985Z,15.00
2018-01-06T23:17:04.454Z,18.00
2018-01-06T23:19:31.897Z,18.33
2018-01-06T23:21:59.343Z,17.67
2018-01-06T23:24:26.776Z,11.57
2018-01-06T23:26:54.215Z,30.43
2018-01-06T23:29:21.633Z,16.10
2018-01-06T23:31:49.196Z,16.37
2018-01-06T23:34:16.626Z,15.03
2018-01-06T23:36:44.110Z,10.77
2018-01-06T23:39:11.570Z,12.63
2018-01-06T23:41:38.997Z,10.73
2018-01-06T23:44:06.426Z,14.13
2018-01-06T23:46:33.941Z,16.63
2018-01-06T23:49:01.569Z,12.50
2018-01-06T23:51:29.066Z,11.07
2018-01-06T23:53:56.628Z,11.83
2018-01-06T23:56:24.046Z,10.60
2018-01-06T23:58:51.729Z,14.77
